Terminal Aerodrome Forecast
Issued by NWS Cleveland, OH

Home | Current Version | Previous Version | Graphics & Text | Print | Product List | Glossary On
Versions: 1 2 3 4 5 6 7 8 9 10 11 12 13 14
000
FTUS41 KCLE 211132
TAFERI
TAF
KERI 211132Z 2112/2212 24012KT P6SM SCT015 OVC025
      TEMPO 2112/2115 3SM -RA BKN015
     FM211600 27014G22KT P6SM SCT035
     FM220200 27012KT P6SM VCSH OVC020=

USA.gov is the U.S. government's official web portal to all federal, state and local government web resources and services.